Harbor Emperor — WCY6430 — position and weather

sailwx.info

Track history (hours):
 
Tides and Currents Weather Stations Pressure Air Temp Water Temp Dewpoint Dewpoint Depression Visibility Wind Speed Wind Dir Waves Ship Positions

Harbor Emperor

Owner: BLUE & GOLD FLEET, SAN FRANCISCO, CA. More information available from US FCC via Universal Licensing System and Coast Guard Vessel Documentation Center.

Last reported at 2015-Mar-28 11:29 UTC. Time now 2015-Mar-28 12:23 UTC.
Position N 37°49' W 122°25'.

Length 31 m.

Type: Passenger vessel. MMSI: 366985270.

Date/timePositionNaut miles runAvg speedWind from/ knotsBaromVisibWave heightAir tempDewpointWater temp
2015-Mar-28 11:29N 37°49' W 122°25'0 0.0
2015-Mar-28 10:31N 37°49' W 122°25'0 0.0
2015-Mar-28 09:29N 37°49' W 122°25'0 0.0
2015-Mar-28 08:29N 37°49' W 122°25'0 0.0
2015-Mar-28 07:31N 37°49' W 122°25'0 0.0
2015-Mar-28 06:32N 37°49' W 122°25'0 0.0
2015-Mar-28 05:31N 37°49' W 122°25'0 0.0
2015-Mar-28 04:31N 37°49' W 122°25'0 0.0
2015-Mar-28 03:28N 37°49' W 122°25'0 0.0
2015-Mar-28 02:28N 37°49' W 122°25'0 0.2
2015-Mar-28 01:33N 37°49' W 122°25'0 0.2
2015-Mar-28 00:33N 37°49' W 122°25'0 0.2
2015-Mar-27 23:34N 37°49' W 122°25'2 2.4
2015-Mar-27 22:33N 37°49' W 122°28'2 2.4
2015-Mar-27 21:33N 37°49' W 122°25'3 2.9
2015-Mar-27 20:33N 37°49' W 122°28'3 3.1
2015-Mar-27 19:33N 37°49' W 122°24'1 0.6
2015-Mar-27 18:33N 37°49' W 122°25'2 2.1
2015-Mar-27 17:30N 37°49' W 122°27'2 2.2
2015-Mar-27 16:28N 37°49' W 122°25'0 0.0
2015-Mar-27 15:31N 37°49' W 122°25'0 0.0
2015-Mar-27 14:28N 37°49' W 122°25'0 0.0
2015-Mar-27 13:10N 37°49' W 122°25'0 0.0
2015-Mar-27 12:22N 37°49' W 122°25'0 0.0
2015-Mar-27 11:28N 37°49' W 122°25'0 0.0
2015-Mar-27 10:28N 37°49' W 122°25'0 0.0
2015-Mar-27 09:28N 37°49' W 122°25'0 0.0
2015-Mar-27 08:28N 37°49' W 122°25'0 0.0
2015-Mar-27 07:31N 37°49' W 122°25'0 0.0
2015-Mar-27 06:31N 37°49' W 122°25'0 0.0
2015-Mar-27 05:28N 37°49' W 122°25'0 0.0
2015-Mar-27 04:31N 37°49' W 122°25'0 0.0
2015-Mar-27 03:25N 37°49' W 122°25'0 0.0
2015-Mar-27 02:31N 37°49' W 122°25'0 0.0
2015-Mar-27 01:28N 37°49' W 122°25'0 0.0
2015-Mar-27 00:32N 37°49' W 122°25'0 0.0
2015-Mar-26 23:33N 37°49' W 122°25'2 2.3
2015-Mar-26 22:34N 37°49' W 122°27'2 2.3
2015-Mar-26 21:33N 37°49' W 122°25'3 2.8
2015-Mar-26 20:34N 37°49' W 122°28'4 3.6
2015-Mar-26 19:33N 37°49' W 122°24'1 0.8
2015-Mar-26 18:33N 37°49' W 122°25'3 3.2
2015-Mar-26 17:33N 37°49' W 122°29'3 3.3
2015-Mar-26 16:33N 37°49' W 122°25'0 0.0
2015-Mar-26 00:25N 37°49' W 122°25'0 0.1
2015-Mar-25 23:34N 37°49' W 122°25'2 1.9
2015-Mar-25 22:33N 37°49' W 122°27'2 2.0
2015-Mar-25 21:33N 37°49' W 122°25'2 2.2
2015-Mar-25 20:33N 37°49' W 122°27'2 2.2
2015-Mar-25 19:34N 37°50' W 122°25'1 1.0
2015-Mar-25 18:33N 37°49' W 122°25'3 2.7
2015-Mar-25 17:33N 37°49' W 122°28'2 0.1
2015-Mar-25 03:33N 37°50' W 122°26'2 1.7
2015-Mar-25 02:33N 37°49' W 122°25'0 0.0
2015-Mar-25 01:33N 37°49' W 122°25'0 0.0
2015-Mar-25 00:33N 37°49' W 122°25'0 0.0
2015-Mar-24 23:33N 37°49' W 122°25'4 4.1
2015-Mar-24 22:33N 37°51' W 122°29'4 4.0
2015-Mar-24 21:34N 37°49' W 122°25'0 0.2
2015-Mar-24 20:34N 37°49' W 122°25'1 0.1
2015-Mar-24 03:33N 37°49' W 122°26'1 1.1
2015-Mar-24 02:31N 37°49' W 122°25'0 0.0
2015-Mar-24 01:31N 37°49' W 122°25'0 0.0
2015-Mar-24 00:28N 37°49' W 122°25'0 0.0
2015-Mar-23 23:33N 37°49' W 122°25'4 3.8
2015-Mar-23 22:33N 37°51' W 122°28'4 3.7
2015-Mar-23 21:33N 37°49' W 122°25'0 0.1
2015-Mar-23 20:33N 37°49' W 122°25'0 0.0
2015-Mar-23 19:32N 37°49' W 122°25'0 0.0
2015-Mar-23 18:29N 37°49' W 122°25'0 0.0
2015-Mar-23 17:32N 37°49' W 122°25'0 0.0
2015-Mar-23 16:32N 37°49' W 122°25'0 0.0
2015-Mar-23 15:29N 37°49' W 122°25'0 0.0
2015-Mar-23 14:32N 37°49' W 122°25'0 0.0
2015-Mar-23 13:32N 37°49' W 122°25'0 0.0
2015-Mar-23 12:32N 37°49' W 122°25'0 0.0
2015-Mar-23 11:32N 37°49' W 122°25'0 0.0
2015-Mar-23 10:32N 37°49' W 122°25'0 0.0
2015-Mar-23 09:29N 37°49' W 122°25'0 0.0
2015-Mar-23 08:32N 37°49' W 122°25'0 0.0
2015-Mar-23 07:26N 37°49' W 122°25'0 0.0
2015-Mar-23 06:32N 37°49' W 122°25'0 0.0
2015-Mar-23 05:29N 37°49' W 122°25'0 0.0
2015-Mar-23 04:32N 37°49' W 122°25'0 0.0
2015-Mar-23 03:32N 37°49' W 122°25'0 0.0
2015-Mar-23 02:28N 37°49' W 122°25'3 3.6
2015-Mar-23 01:34N 37°49' W 122°29'2 1.8
2015-Mar-23 00:33N 37°50' W 122°27'2 1.7
2015-Mar-22 23:33N 37°49' W 122°25'0 0.2
2015-Mar-22 22:33N 37°49' W 122°25'0 0.1
2015-Mar-22 21:34N 37°49' W 122°25'2 2.1
2015-Mar-22 20:34N 37°49' W 122°27'3 3.2
2015-Mar-22 19:33N 37°49' W 122°23'1 1.1
2015-Mar-22 18:33N 37°49' W 122°25'2 2.4
2015-Mar-22 17:33N 37°49' W 122°28'2 2.5
2015-Mar-22 16:33N 37°49' W 122°25'0 0.0
2015-Mar-22 15:33N 37°49' W 122°25'0 0.0
2015-Mar-22 14:33N 37°49' W 122°25'0 0.0
2015-Mar-22 13:33N 37°49' W 122°25'0 0.0
2015-Mar-22 12:33N 37°49' W 122°25'0 0.0
2015-Mar-22 11:33N 37°49' W 122°25'0 0.0
2015-Mar-22 10:33N 37°49' W 122°25'0 0.0
2015-Mar-22 09:33N 37°49' W 122°25'0 0.0
2015-Mar-22 08:33N 37°49' W 122°25'0 0.0
2015-Mar-22 07:33N 37°49' W 122°25'0 0.0
2015-Mar-22 06:33N 37°49' W 122°25'0 0.0
2015-Mar-22 05:33N 37°49' W 122°25'0 0.0
2015-Mar-22 04:33N 37°49' W 122°25'0 0.0
2015-Mar-22 03:33N 37°49' W 122°25'0 0.0
2015-Mar-22 02:33N 37°49' W 122°25'3 3.3
2015-Mar-22 01:34N 37°49' W 122°29'2 1.9
2015-Mar-22 00:34N 37°50' W 122°26'2 1.8
2015-Mar-21 23:33N 37°49' W 122°24'0 0.3
2015-Mar-21 22:33N 37°49' W 122°25'0 0.1
2015-Mar-21 21:34N 37°49' W 122°25'2 2.0
2015-Mar-21 20:33N 37°49' W 122°27'4 3.6
2015-Mar-21 19:33N 37°48' W 122°23'2 1.6
2015-Mar-21 18:33N 37°49' W 122°25'2 2.3
2015-Mar-21 17:34N 37°49' W 122°27'1 0.1
2015-Mar-21 03:33N 37°49' W 122°26'1 1.2
2015-Mar-21 02:33N 37°49' W 122°25'0 0.3
2015-Mar-21 01:33N 37°49' W 122°24'0 0.3
2015-Mar-21 00:33N 37°49' W 122°25'0 0.0
2015-Mar-20 23:33N 37°49' W 122°25'3 3.4
2015-Mar-20 22:33N 37°51' W 122°28'3 3.3
2015-Mar-20 21:33N 37°49' W 122°25'3 3.0
2015-Mar-20 20:33N 37°49' W 122°28'4 4.0
2015-Mar-20 19:33N 37°48' W 122°23'1 1.1
2015-Mar-20 18:33N 37°49' W 122°25'2 1.9
2015-Mar-20 17:33N 37°49' W 122°27'3 3.3
2015-Mar-20 16:31N 37°52' W 122°27'5 5.5
2015-Mar-20 15:34N 37°48' W 122°24'1 1.1
2015-Mar-20 14:34N 37°49' W 122°24'2 2.0
2015-Mar-20 13:34N 37°50' W 122°26'2 2.0
2015-Mar-20 12:34N 37°52' W 122°27'1 0.1
2015-Mar-20 03:33N 37°51' W 122°28'4 3.5
2015-Mar-20 02:33N 37°49' W 122°25'0 0.0
2015-Mar-20 01:33N 37°49' W 122°25'0 0.0
2015-Mar-20 00:33N 37°49' W 122°25'0 0.0
2015-Mar-19 23:33N 37°49' W 122°25'4 3.9
2015-Mar-19 22:34N 37°51' W 122°28'4 4.0
2015-Mar-19 21:33N 37°49' W 122°25'1 0.1
2015-Mar-19 03:33N 37°49' W 122°25'1 1.0
2015-Mar-19 02:34N 37°49' W 122°25'0 0.0
2015-Mar-19 01:33N 37°49' W 122°25'0 0.0
2015-Mar-19 00:33N 37°49' W 122°25'0 0.0
2015-Mar-18 23:34N 37°49' W 122°25'3 3.0
2015-Mar-18 22:33N 37°50' W 122°28'3 3.1
2015-Mar-18 21:33N 37°49' W 122°25'3 3.1
2015-Mar-18 20:34N 37°49' W 122°29'4 3.9
2015-Mar-18 19:34N 37°49' W 122°24'1 0.8
2015-Mar-18 18:33N 37°49' W 122°25'3 2.7
2015-Mar-18 17:33N 37°49' W 122°28'3 2.7
2015-Mar-18 16:33N 37°49' W 122°25'  
Track history (hours):
 
Tides and Currents Weather Stations Pressure Air Temp Water Temp Dewpoint Dewpoint Depression Visibility Wind Speed Wind Dir Waves Ship Positions

Harbor Emperor

Owner: BLUE & GOLD FLEET, SAN FRANCISCO, CA. More information available from US FCC via Universal Licensing System and Coast Guard Vessel Documentation Center.

Last reported at 2015-Mar-28 11:29 UTC. Time now 2015-Mar-28 12:23 UTC.
Position N 37°49' W 122°25'.

Length 31 m.

Type: Passenger vessel. MMSI: 366985270.

Date/timePositionNaut miles runAvg speedWind from/ knotsBaromVisibWave heightAir tempDewpointWater temp
2015-Mar-28 11:29N 37°49' W 122°25'0 0.0
2015-Mar-28 10:31N 37°49' W 122°25'0 0.0
2015-Mar-28 09:29N 37°49' W 122°25'0 0.0
2015-Mar-28 08:29N 37°49' W 122°25'0 0.0
2015-Mar-28 07:31N 37°49' W 122°25'0 0.0
2015-Mar-28 06:32N 37°49' W 122°25'0 0.0
2015-Mar-28 05:31N 37°49' W 122°25'0 0.0
2015-Mar-28 04:31N 37°49' W 122°25'0 0.0
2015-Mar-28 03:28N 37°49' W 122°25'0 0.0
2015-Mar-28 02:28N 37°49' W 122°25'0 0.2
2015-Mar-28 01:33N 37°49' W 122°25'0 0.2
2015-Mar-28 00:33N 37°49' W 122°25'0 0.2
2015-Mar-27 23:34N 37°49' W 122°25'2 2.4
2015-Mar-27 22:33N 37°49' W 122°28'2 2.4
2015-Mar-27 21:33N 37°49' W 122°25'3 2.9
2015-Mar-27 20:33N 37°49' W 122°28'3 3.1
2015-Mar-27 19:33N 37°49' W 122°24'1 0.6
2015-Mar-27 18:33N 37°49' W 122°25'2 2.1
2015-Mar-27 17:30N 37°49' W 122°27'2 2.2
2015-Mar-27 16:28N 37°49' W 122°25'0 0.0
2015-Mar-27 15:31N 37°49' W 122°25'0 0.0
2015-Mar-27 14:28N 37°49' W 122°25'0 0.0
2015-Mar-27 13:10N 37°49' W 122°25'0 0.0
2015-Mar-27 12:22N 37°49' W 122°25'0 0.0
2015-Mar-27 11:28N 37°49' W 122°25'0 0.0
2015-Mar-27 10:28N 37°49' W 122°25'0 0.0
2015-Mar-27 09:28N 37°49' W 122°25'0 0.0
2015-Mar-27 08:28N 37°49' W 122°25'0 0.0
2015-Mar-27 07:31N 37°49' W 122°25'0 0.0
2015-Mar-27 06:31N 37°49' W 122°25'0 0.0
2015-Mar-27 05:28N 37°49' W 122°25'0 0.0
2015-Mar-27 04:31N 37°49' W 122°25'0 0.0
2015-Mar-27 03:25N 37°49' W 122°25'0 0.0
2015-Mar-27 02:31N 37°49' W 122°25'0 0.0
2015-Mar-27 01:28N 37°49' W 122°25'0 0.0
2015-Mar-27 00:32N 37°49' W 122°25'0 0.0
2015-Mar-26 23:33N 37°49' W 122°25'2 2.3
2015-Mar-26 22:34N 37°49' W 122°27'2 2.3
2015-Mar-26 21:33N 37°49' W 122°25'3 2.8
2015-Mar-26 20:34N 37°49' W 122°28'4 3.6
2015-Mar-26 19:33N 37°49' W 122°24'1 0.8
2015-Mar-26 18:33N 37°49' W 122°25'3 3.2
2015-Mar-26 17:33N 37°49' W 122°29'3 3.3
2015-Mar-26 16:33N 37°49' W 122°25'0 0.0
2015-Mar-26 00:25N 37°49' W 122°25'0 0.1
2015-Mar-25 23:34N 37°49' W 122°25'2 1.9
2015-Mar-25 22:33N 37°49' W 122°27'2 2.0
2015-Mar-25 21:33N 37°49' W 122°25'2 2.2
2015-Mar-25 20:33N 37°49' W 122°27'2 2.2
2015-Mar-25 19:34N 37°50' W 122°25'1 1.0
2015-Mar-25 18:33N 37°49' W 122°25'3 2.7
2015-Mar-25 17:33N 37°49' W 122°28'2 0.1
2015-Mar-25 03:33N 37°50' W 122°26'2 1.7
2015-Mar-25 02:33N 37°49' W 122°25'0 0.0
2015-Mar-25 01:33N 37°49' W 122°25'0 0.0
2015-Mar-25 00:33N 37°49' W 122°25'0 0.0
2015-Mar-24 23:33N 37°49' W 122°25'4 4.1
2015-Mar-24 22:33N 37°51' W 122°29'4 4.0
2015-Mar-24 21:34N 37°49' W 122°25'0 0.2
2015-Mar-24 20:34N 37°49' W 122°25'1 0.1
2015-Mar-24 03:33N 37°49' W 122°26'1 1.1
2015-Mar-24 02:31N 37°49' W 122°25'0 0.0
2015-Mar-24 01:31N 37°49' W 122°25'0 0.0
2015-Mar-24 00:28N 37°49' W 122°25'0 0.0
2015-Mar-23 23:33N 37°49' W 122°25'4 3.8
2015-Mar-23 22:33N 37°51' W 122°28'4 3.7
2015-Mar-23 21:33N 37°49' W 122°25'0 0.1
2015-Mar-23 20:33N 37°49' W 122°25'0 0.0
2015-Mar-23 19:32N 37°49' W 122°25'0 0.0
2015-Mar-23 18:29N 37°49' W 122°25'0 0.0
2015-Mar-23 17:32N 37°49' W 122°25'0 0.0
2015-Mar-23 16:32N 37°49' W 122°25'0 0.0
2015-Mar-23 15:29N 37°49' W 122°25'0 0.0
2015-Mar-23 14:32N 37°49' W 122°25'0 0.0
2015-Mar-23 13:32N 37°49' W 122°25'0 0.0
2015-Mar-23 12:32N 37°49' W 122°25'0 0.0
2015-Mar-23 11:32N 37°49' W 122°25'0 0.0
2015-Mar-23 10:32N 37°49' W 122°25'0 0.0
2015-Mar-23 09:29N 37°49' W 122°25'0 0.0
2015-Mar-23 08:32N 37°49' W 122°25'0 0.0
2015-Mar-23 07:26N 37°49' W 122°25'0 0.0
2015-Mar-23 06:32N 37°49' W 122°25'0 0.0
2015-Mar-23 05:29N 37°49' W 122°25'0 0.0
2015-Mar-23 04:32N 37°49' W 122°25'0 0.0
2015-Mar-23 03:32N 37°49' W 122°25'0 0.0
2015-Mar-23 02:28N 37°49' W 122°25'3 3.6
2015-Mar-23 01:34N 37°49' W 122°29'2 1.8
2015-Mar-23 00:33N 37°50' W 122°27'2 1.7
2015-Mar-22 23:33N 37°49' W 122°25'0 0.2
2015-Mar-22 22:33N 37°49' W 122°25'0 0.1
2015-Mar-22 21:34N 37°49' W 122°25'2 2.1
2015-Mar-22 20:34N 37°49' W 122°27'3 3.2
2015-Mar-22 19:33N 37°49' W 122°23'1 1.1
2015-Mar-22 18:33N 37°49' W 122°25'2 2.4
2015-Mar-22 17:33N 37°49' W 122°28'2 2.5
2015-Mar-22 16:33N 37°49' W 122°25'0 0.0
2015-Mar-22 15:33N 37°49' W 122°25'0 0.0
2015-Mar-22 14:33N 37°49' W 122°25'0 0.0
2015-Mar-22 13:33N 37°49' W 122°25'0 0.0
2015-Mar-22 12:33N 37°49' W 122°25'0 0.0
2015-Mar-22 11:33N 37°49' W 122°25'0 0.0
2015-Mar-22 10:33N 37°49' W 122°25'0 0.0
2015-Mar-22 09:33N 37°49' W 122°25'0 0.0
2015-Mar-22 08:33N 37°49' W 122°25'0 0.0
2015-Mar-22 07:33N 37°49' W 122°25'0 0.0
2015-Mar-22 06:33N 37°49' W 122°25'0 0.0
2015-Mar-22 05:33N 37°49' W 122°25'0 0.0
2015-Mar-22 04:33N 37°49' W 122°25'0 0.0
2015-Mar-22 03:33N 37°49' W 122°25'0 0.0
2015-Mar-22 02:33N 37°49' W 122°25'3 3.3
2015-Mar-22 01:34N 37°49' W 122°29'2 1.9
2015-Mar-22 00:34N 37°50' W 122°26'2 1.8
2015-Mar-21 23:33N 37°49' W 122°24'0 0.3
2015-Mar-21 22:33N 37°49' W 122°25'0 0.1
2015-Mar-21 21:34N 37°49' W 122°25'2 2.0
2015-Mar-21 20:33N 37°49' W 122°27'4 3.6
2015-Mar-21 19:33N 37°48' W 122°23'2 1.6
2015-Mar-21 18:33N 37°49' W 122°25'2 2.3
2015-Mar-21 17:34N 37°49' W 122°27'1 0.1
2015-Mar-21 03:33N 37°49' W 122°26'1 1.2
2015-Mar-21 02:33N 37°49' W 122°25'0 0.3
2015-Mar-21 01:33N 37°49' W 122°24'0 0.3
2015-Mar-21 00:33N 37°49' W 122°25'0 0.0
2015-Mar-20 23:33N 37°49' W 122°25'3 3.4
2015-Mar-20 22:33N 37°51' W 122°28'3 3.3
2015-Mar-20 21:33N 37°49' W 122°25'3 3.0
2015-Mar-20 20:33N 37°49' W 122°28'4 4.0
2015-Mar-20 19:33N 37°48' W 122°23'1 1.1
2015-Mar-20 18:33N 37°49' W 122°25'2 1.9
2015-Mar-20 17:33N 37°49' W 122°27'3 3.3
2015-Mar-20 16:31N 37°52' W 122°27'5 5.5
2015-Mar-20 15:34N 37°48' W 122°24'1 1.1
2015-Mar-20 14:34N 37°49' W 122°24'2 2.0
2015-Mar-20 13:34N 37°50' W 122°26'2 2.0
2015-Mar-20 12:34N 37°52' W 122°27'1 0.1
2015-Mar-20 03:33N 37°51' W 122°28'4 3.5
2015-Mar-20 02:33N 37°49' W 122°25'0 0.0
2015-Mar-20 01:33N 37°49' W 122°25'0 0.0
2015-Mar-20 00:33N 37°49' W 122°25'0 0.0
2015-Mar-19 23:33N 37°49' W 122°25'4 3.9
2015-Mar-19 22:34N 37°51' W 122°28'4 4.0
2015-Mar-19 21:33N 37°49' W 122°25'1 0.1
2015-Mar-19 03:33N 37°49' W 122°25'1 1.0
2015-Mar-19 02:34N 37°49' W 122°25'0 0.0
2015-Mar-19 01:33N 37°49' W 122°25'0 0.0
2015-Mar-19 00:33N 37°49' W 122°25'0 0.0
2015-Mar-18 23:34N 37°49' W 122°25'3 3.0
2015-Mar-18 22:33N 37°50' W 122°28'3 3.1
2015-Mar-18 21:33N 37°49' W 122°25'3 3.1
2015-Mar-18 20:34N 37°49' W 122°29'4 3.9
2015-Mar-18 19:34N 37°49' W 122°24'1 0.8
2015-Mar-18 18:33N 37°49' W 122°25'3 2.7
2015-Mar-18 17:33N 37°49' W 122°28'3 2.7
2015-Mar-18 16:33N 37°49' W 122°25'  

Dump ship's entire track history